Time;durP1;ratioP1;P1;durP2;ratioP2;P2;SDS_P1;SDS_P2;PMS_P1;PMS_P2;Temp;Humidity;BMP_temperature;BMP_pressure;BME280_temperature;BME280_humidity;BME280_pressure;Samples;Min_cycle;Max_cycle;Signal;HPM_P1;HPM_P2
2023/04/02 00:00:31;;;;;;;11.05;3.90;;;10.90;99.90;;;;;;4998852;28;20018;-66
2023/04/02 00:03:07;;;;;;;4.95;2.67;;;10.90;99.90;;;;;;4997630;28;20026;-66
2023/04/02 00:05:51;;;;;;;15.82;4.70;;;10.90;99.90;;;;;;4999005;28;20050;-66
2023/04/02 00:08:37;;;;;;;23.55;6.78;;;10.90;99.90;;;;;;4998586;28;20026;-66
2023/04/02 00:11:04;;;;;;;35.22;9.38;;;10.80;99.90;;;;;;4998418;28;20034;-66
2023/04/02 00:13:33;;;;;;;26.30;6.50;;;10.80;99.90;;;;;;4998053;28;20109;-66
2023/04/02 00:15:59;;;;;;;22.27;6.30;;;10.80;99.90;;;;;;4997640;28;20031;-66
2023/04/02 00:18:26;;;;;;;17.45;5.00;;;10.80;99.90;;;;;;4998210;28;20026;-66
2023/04/02 00:21:13;;;;;;;12.85;4.18;;;10.80;99.90;;;;;;4998825;28;20034;-66
2023/04/02 00:23:41;;;;;;;7.18;2.85;;;10.70;99.90;;;;;;4998197;28;20030;-66
2023/04/02 00:26:30;;;;;;;5.65;1.92;;;10.70;99.90;;;;;;4997230;28;20031;-66
2023/04/02 00:28:56;;;;;;;4.63;2.17;;;10.80;99.90;;;;;;4998190;28;20064;-66
2023/04/02 00:31:23;;;;;;;5.55;2.50;;;10.90;99.90;;;;;;4997200;28;20117;-66
2023/04/02 00:33:49;;;;;;;2.97;2.13;;;10.90;99.90;;;;;;4996431;28;20033;-66
2023/04/02 00:36:18;;;;;;;2.85;2.10;;;10.90;99.90;;;;;;4997169;28;20026;-66
2023/04/02 00:38:45;;;;;;;9.93;2.10;;;11.00;99.90;;;;;;4997904;28;20022;-66
2023/04/02 00:41:17;;;;;;;3.08;1.95;;;10.90;99.90;;;;;;4997068;28;20025;-66
2023/04/02 00:43:43;;;;;;;;;;;10.90;99.90;;;;;;4997750;28;20031;-66
2023/04/02 00:46:20;;;;;;;2.60;1.95;;;10.90;99.90;;;;;;4997058;28;19929;-66
2023/04/02 00:49:11;;;;;;;4.07;1.90;;;10.80;99.90;;;;;;4997899;28;20102;-66
2023/04/02 00:52:00;;;;;;;3.85;2.17;;;10.70;99.90;;;;;;4997621;28;20026;-66
2023/04/02 00:54:36;;;;;;;4.00;1.80;;;10.60;99.90;;;;;;4996961;28;20066;-66
2023/04/02 00:57:01;;;;;;;3.67;1.67;;;10.60;99.90;;;;;;4997679;28;20019;-66
2023/04/02 00:59:27;;;;;;;3.83;2.05;;;10.60;99.90;;;;;;4996993;28;20025;-66
2023/04/02 01:02:00;;;;;;;3.88;2.00;;;10.60;99.90;;;;;;4997633;28;20113;-66
2023/04/02 01:04:33;;;;;;;3.97;1.77;;;10.60;99.90;;;;;;4997248;28;20029;-66
2023/04/02 01:07:03;;;;;;;3.92;2.10;;;10.60;99.90;;;;;;4997580;28;20093;-66
2023/04/02 01:09:54;;;;;;;4.30;2.05;;;10.50;99.90;;;;;;4997573;28;20022;-66
2023/04/02 01:12:31;;;;;;;5.07;2.30;;;10.60;99.90;;;;;;4997424;28;20026;-66
2023/04/02 01:15:11;;;;;;;2.40;1.73;;;10.60;99.90;;;;;;4996561;28;20073;-66
2023/04/02 01:18:08;;;;;;;4.43;2.35;;;10.60;99.90;;;;;;4996690;28;20113;-66
2023/04/02 01:21:05;;;;;;;4.15;2.10;;;10.60;99.90;;;;;;4997478;28;20026;-66
2023/04/02 01:23:51;;;;;;;2.53;2.00;;;10.70;99.90;;;;;;4996674;28;20026;-66
2023/04/02 01:26:29;;;;;;;4.28;1.90;;;10.80;99.90;;;;;;4997310;28;20049;-66
2023/04/02 01:29:24;;;;;;;5.47;2.13;;;10.90;99.90;;;;;;4996921;28;20165;-66
2023/04/02 01:31:52;;;;;;;2.97;1.85;;;10.90;99.90;;;;;;4997308;28;20104;-66
2023/04/02 01:34:21;;;;;;;4.30;2.10;;;10.90;99.90;;;;;;4996471;28;20164;-66
2023/04/02 01:37:24;;;;;;;2.92;2.33;;;11.00;99.90;;;;;;4997527;28;20030;-66
2023/04/02 01:40:08;;;;;;;3.05;2.40;;;11.00;99.90;;;;;;4996799;28;20054;-66
2023/04/02 01:42:58;;;;;;;4.03;2.20;;;10.90;99.90;;;;;;4996518;28;20026;-66
2023/04/02 01:45:24;;;;;;;4.22;2.33;;;10.80;99.90;;;;;;4997570;28;20038;-66
2023/04/02 01:47:50;;;;;;;6.65;2.90;;;10.70;99.90;;;;;;5001208;28;20028;-66
2023/04/02 01:50:18;;;;;;;3.80;2.78;;;10.70;99.90;;;;;;5000199;28;20029;-66
2023/04/02 01:52:47;;;;;;;4.97;3.03;;;10.80;99.90;;;;;;5000584;28;20023;-66
2023/04/02 01:55:13;;;;;;;4.90;2.63;;;10.90;99.90;;;;;;5000927;28;20029;-66
2023/04/02 01:57:43;;;;;;;5.43;2.95;;;10.90;99.90;;;;;;5000278;28;20026;-66
2023/04/02 02:00:13;;;;;;;4.80;2.70;;;11.00;99.90;;;;;;4999934;28;20019;-66
2023/04/02 02:02:40;;;;;;;4.57;3.05;;;10.90;99.90;;;;;;5000006;28;20031;-66
2023/04/02 02:05:12;;;;;;;6.57;3.20;;;10.90;99.90;;;;;;4999806;28;20080;-66
2023/04/02 02:07:40;;;;;;;4.72;2.45;;;10.80;99.90;;;;;;5000876;28;20026;-66
2023/04/02 02:10:07;;;;;;;3.38;2.08;;;10.70;99.90;;;;;;4999979;28;20057;-66
2023/04/02 02:12:32;;;;;;;3.13;2.03;;;10.60;99.90;;;;;;4999654;28;20023;-66
2023/04/02 02:14:58;;;;;;;4.43;1.92;;;10.60;99.90;;;;;;4999707;28;20077;-66
2023/04/02 02:17:29;;;;;;;2.33;1.65;;;10.50;99.90;;;;;;4999651;28;20027;-66
2023/04/02 02:19:58;;;;;;;3.28;1.70;;;10.60;99.90;;;;;;4999793;28;20026;-66
2023/04/02 02:22:33;;;;;;;4.88;2.35;;;10.60;99.90;;;;;;4999614;28;20034;-66
2023/04/02 02:25:03;;;;;;;2.92;1.92;;;10.60;99.90;;;;;;5000479;28;20048;-66
2023/04/02 02:27:29;;;;;;;3.33;1.95;;;10.50;99.90;;;;;;5000312;28;20029;-67
2023/04/02 02:30:06;;;;;;;5.00;2.00;;;10.40;99.90;;;;;;4999551;28;20034;-66
2023/04/02 02:32:33;;;;;;;5.90;2.92;;;10.40;99.90;;;;;;4983360;28;20053;-66
2023/04/02 02:35:27;;;;;;;3.17;1.98;;;10.40;99.90;;;;;;4999391;28;20025;-66
2023/04/02 02:38:11;;;;;;;4.35;2.00;;;10.40;99.90;;;;;;4982716;28;20034;-66
2023/04/02 02:40:43;;;;;;;3.13;2.30;;;10.50;99.90;;;;;;4999567;28;20030;-66
2023/04/02 02:43:12;;;;;;;3.17;1.80;;;10.50;99.90;;;;;;5000124;28;20058;-67
2023/04/02 02:45:40;;;;;;;6.65;2.20;;;10.50;99.90;;;;;;4999825;28;20030;-66
2023/04/02 02:48:14;;;;;;;3.05;2.13;;;10.50;99.90;;;;;;4999424;28;20069;-66
2023/04/02 02:50:41;;;;;;;3.47;1.80;;;10.40;99.90;;;;;;5000011;28;20026;-66
2023/04/02 02:53:20;;;;;;;2.80;2.10;;;10.40;99.90;;;;;;4999204;28;20023;-66
2023/04/02 02:55:48;;;;;;;5.43;2.03;;;10.40;99.90;;;;;;4999881;28;20032;-66
2023/04/02 02:58:21;;;;;;;4.22;2.25;;;10.40;99.90;;;;;;4998153;28;20027;-66
2023/04/02 03:00:48;;;;;;;4.35;2.45;;;10.40;99.90;;;;;;4998915;28;20052;-66
2023/04/02 03:03:16;;;;;;;4.72;3.13;;;10.50;99.90;;;;;;4999205;28;20080;-66
2023/04/02 03:05:42;;;;;;;5.35;3.88;;;10.50;99.90;;;;;;4998933;28;20036;-66
2023/04/02 03:08:17;;;;;;;5.20;3.38;;;10.60;99.90;;;;;;4998858;28;20026;-66
2023/04/02 03:10:52;;;;;;;5.75;3.70;;;10.60;99.90;;;;;;4999886;28;20034;-66
2023/04/02 03:13:34;;;;;;;5.65;3.13;;;10.60;99.90;;;;;;4999541;28;20026;-66
2023/04/02 03:16:22;;;;;;;6.55;3.45;;;10.70;99.90;;;;;;4998601;28;20029;-66
2023/04/02 03:19:22;;;;;;;2.92;2.28;;;10.60;99.90;;;;;;4999497;28;20117;-66
2023/04/02 03:21:53;;;;;;;1.67;1.13;;;10.50;99.90;;;;;;4998523;28;20113;-66
2023/04/02 03:24:42;;;;;;;0.57;0.57;;;10.50;99.90;;;;;;4998805;28;20022;-66
2023/04/02 03:27:07;;;;;;;0.65;0.40;;;10.50;99.90;;;;;;4998623;28;20026;-66
2023/04/02 03:29:37;;;;;;;0.20;0.20;;;10.50;99.90;;;;;;4998389;28;20037;-66
2023/04/02 03:32:11;;;;;;;0.50;0.30;;;10.50;99.90;;;;;;4999058;28;20036;-66
2023/04/02 03:34:45;;;;;;;1.08;0.40;;;10.40;99.90;;;;;;4998665;28;20109;-66
2023/04/02 03:37:22;;;;;;;0.60;0.30;;;10.30;99.90;;;;;;4998246;28;20027;-66
2023/04/02 03:40:07;;;;;;;0.30;0.30;;;10.20;99.90;;;;;;4998648;28;20027;-66
2023/04/02 03:42:45;;;;;;;0.57;0.40;;;10.20;99.90;;;;;;4998113;28;20023;-66
2023/04/02 03:45:15;;;;;;;0.65;0.20;;;10.20;99.90;;;;;;4998513;28;20034;-66
2023/04/02 03:48:17;;;;;;;1.27;0.30;;;10.10;99.90;;;;;;4997981;28;20026;-66
2023/04/02 03:51:04;;;;;;;0.57;0.30;;;10.00;99.90;;;;;;4998104;28;20030;-66
2023/04/02 03:53:31;;;;;;;0.47;0.38;;;9.90;99.90;;;;;;4998403;28;20030;-66
2023/04/02 03:55:58;;;;;;;0.85;0.70;;;10.00;99.90;;;;;;4998733;28;20025;-66
2023/04/02 03:58:26;;;;;;;1.23;0.82;;;10.00;99.90;;;;;;4998689;28;20023;-66
2023/04/02 04:01:02;;;;;;;1.45;0.80;;;10.00;99.90;;;;;;4997840;28;20019;-66
2023/04/02 04:03:38;;;;;;;0.52;0.50;;;10.00;99.90;;;;;;4998415;28;20041;-66
2023/04/02 04:06:29;;;;;;;1.00;0.70;;;10.00;99.90;;;;;;4998904;28;20101;-66
2023/04/02 04:09:08;;;;;;;0.88;0.25;;;9.90;99.90;;;;;;4997608;28;20026;-66
2023/04/02 04:11:38;;;;;;;0.35;0.20;;;9.60;99.90;;;;;;4997614;28;20033;-66
2023/04/02 04:14:14;;;;;;;0.10;0.10;;;9.70;99.90;;;;;;4998222;28;20034;-66
2023/04/02 04:16:58;;;;;;;1.05;0.20;;;9.60;99.90;;;;;;4998169;28;20018;-66
2023/04/02 04:19:32;;;;;;;0.00;0.00;;;9.50;99.90;;;;;;4998501;28;20029;-66
2023/04/02 04:22:18;;;;;;;0.22;0.10;;;9.60;99.90;;;;;;4997521;28;20026;-66
2023/04/02 04:24:47;;;;;;;0.00;0.00;;;9.60;99.90;;;;;;4997406;28;20029;-66
2023/04/02 04:27:41;;;;;;;0.10;0.10;;;9.70;99.90;;;;;;4997401;28;20042;-66
2023/04/02 04:30:18;;;;;;;0.38;0.20;;;9.50;99.90;;;;;;4998075;28;20073;-66
2023/04/02 04:32:56;;;;;;;0.00;0.00;;;9.60;99.90;;;;;;4997388;28;20022;-66
2023/04/02 04:35:37;;;;;;;0.50;0.30;;;9.50;99.90;;;;;;4998408;28;20069;-66
2023/04/02 04:38:26;;;;;;;0.28;0.15;;;9.40;99.90;;;;;;4997124;28;20031;-66
2023/04/02 04:41:12;;;;;;;0.95;0.30;;;9.30;99.90;;;;;;4998029;28;20014;-66
2023/04/02 04:43:47;;;;;;;0.40;0.32;;;9.50;99.90;;;;;;5021087;22;20038;-63
2023/04/02 04:46:36;;;;;;;0.85;0.57;;;9.50;99.90;;;;;;4998284;28;20046;-63
2023/04/02 04:49:24;;;;;;;0.50;0.50;;;9.60;99.90;;;;;;4997505;28;20025;-63
2023/04/02 04:51:59;;;;;;;0.82;0.60;;;9.60;99.90;;;;;;4997755;28;20029;-63
2023/04/02 04:54:27;;;;;;;1.23;0.68;;;9.50;99.90;;;;;;4996960;28;20105;-63
2023/04/02 04:57:00;;;;;;;2.00;0.60;;;9.50;99.90;;;;;;4997755;28;20024;-63
2023/04/02 04:59:32;;;;;;;5.38;0.70;;;9.60;99.90;;;;;;4997811;28;20033;-63
2023/04/02 05:02:14;;;;;;;0.60;0.50;;;9.50;99.90;;;;;;4997341;28;20080;-63
2023/04/02 05:04:42;;;;;;;0.85;0.60;;;9.30;99.90;;;;;;4996868;28;20032;-63
2023/04/02 05:07:17;;;;;;;0.70;0.50;;;9.40;99.90;;;;;;4997917;28;20114;-63
2023/04/02 05:10:08;;;;;;;2.97;0.68;;;9.30;99.90;;;;;;4996980;28;20037;-63
2023/04/02 05:12:41;;;;;;;0.95;0.70;;;9.40;99.90;;;;;;4997604;28;20053;-63
2023/04/02 05:15:16;;;;;;;0.55;0.52;;;9.30;99.90;;;;;;4997071;28;20109;-63
2023/04/02 05:17:55;;;;;;;0.68;0.63;;;9.40;99.90;;;;;;4997552;28;20026;-63
2023/04/02 05:20:24;;;;;;;1.20;0.57;;;9.20;99.90;;;;;;4998614;28;20033;-63
2023/04/02 05:22:56;;;;;;;0.65;0.50;;;9.20;99.90;;;;;;5000717;28;20080;-63
2023/04/02 05:25:28;;;;;;;1.42;0.75;;;9.20;99.90;;;;;;5000737;28;20113;-63
2023/04/02 05:28:17;;;;;;;1.05;0.52;;;9.20;99.90;;;;;;5000614;28;20030;-63
2023/04/02 05:30:59;;;;;;;0.75;0.40;;;9.20;99.90;;;;;;5001207;28;20102;-63
2023/04/02 05:33:28;;;;;;;0.50;0.30;;;9.30;99.90;;;;;;5000353;28;20034;-63
2023/04/02 05:35:59;;;;;;;0.90;0.77;;;9.30;99.90;;;;;;5000797;28;20022;-63
2023/04/02 05:38:31;;;;;;;2.03;0.70;;;9.30;99.90;;;;;;5001363;28;20106;-63
2023/04/02 05:41:37;;;;;;;0.50;0.50;;;9.30;99.90;;;;;;5000308;28;20031;-63
2023/04/02 05:44:17;;;;;;;1.70;0.40;;;9.20;99.90;;;;;;4980020;28;20045;-63
2023/04/02 05:46:53;;;;;;;1.52;0.60;;;9.10;99.90;;;;;;4980615;28;20094;-63
2023/04/02 05:49:48;;;;;;;0.52;0.52;;;9.20;99.90;;;;;;4980226;28;20117;-62
2023/04/02 05:52:25;;;;;;;1.23;0.80;;;9.10;99.90;;;;;;4979929;28;20035;-63
2023/04/02 05:55:12;;;;;;;1.20;0.63;;;9.00;99.90;;;;;;4980177;28;20083;-63
2023/04/02 05:58:01;;;;;;;0.52;0.52;;;9.10;99.90;;;;;;4979897;28;20023;-63
2023/04/02 06:00:55;;;;;;;1.77;0.68;;;9.10;99.90;;;;;;4979850;28;20047;-63
2023/04/02 06:03:31;;;;;;;1.38;0.60;;;8.90;99.90;;;;;;4929783;28;20083;-63
2023/04/02 06:06:02;;;;;;;1.35;0.65;;;8.90;99.90;;;;;;4980501;28;20070;-63
2023/04/02 06:08:40;;;;;;;1.48;0.70;;;8.70;99.90;;;;;;4980231;28;20030;-63
2023/04/02 06:11:12;;;;;;;0.80;0.60;;;8.80;99.90;;;;;;4979713;28;20040;-63
2023/04/02 06:13:38;;;;;;;1.38;0.68;;;8.60;99.90;;;;;;4979529;28;20030;-63
2023/04/02 06:16:05;;;;;;;0.93;0.65;;;8.60;99.90;;;;;;4979485;28;20019;-63
2023/04/02 06:18:34;;;;;;;1.38;0.60;;;8.60;99.90;;;;;;5004743;28;20041;-63
2023/04/02 06:21:00;;;;;;;0.95;0.52;;;8.80;99.90;;;;;;4999774;28;20026;-64
2023/04/02 06:23:52;;;;;;;1.38;0.70;;;8.90;99.90;;;;;;4999505;28;20030;-63
2023/04/02 06:26:37;;;;;;;0.67;0.60;;;8.80;99.90;;;;;;4999445;28;20034;-63
2023/04/02 06:29:25;;;;;;;0.95;0.60;;;8.70;99.90;;;;;;5000214;28;20040;-63
2023/04/02 06:31:55;;;;;;;0.68;0.40;;;8.50;99.90;;;;;;4999254;28;20027;-63
2023/04/02 06:34:23;;;;;;;0.30;0.30;;;8.30;99.90;;;;;;5000040;28;20029;-63
2023/04/02 06:36:53;;;;;;;0.32;0.30;;;8.20;99.90;;;;;;4999364;28;20026;-63
2023/04/02 06:39:22;;;;;;;0.40;0.30;;;8.20;99.90;;;;;;4999607;28;20063;-63
2023/04/02 06:41:59;;;;;;;0.73;0.47;;;8.30;99.90;;;;;;5000331;28;20031;-63
2023/04/02 06:44:29;;;;;;;0.77;0.60;;;8.20;99.90;;;;;;5000090;28;20026;-63
2023/04/02 06:47:03;;;;;;;1.27;0.90;;;8.40;99.90;;;;;;5000086;28;20027;-63
2023/04/02 06:49:50;;;;;;;0.95;0.73;;;8.50;99.90;;;;;;5000170;28;20046;-65
2023/04/02 06:52:24;;;;;;;1.23;0.95;;;8.60;99.90;;;;;;4999944;28;20031;-66
2023/04/02 06:54:49;;;;;;;5.38;0.90;;;8.60;99.90;;;;;;4999174;28;20050;-65
2023/04/02 06:57:15;;;;;;;1.67;0.80;;;8.70;99.90;;;;;;4998996;28;20054;-66
2023/04/02 06:59:41;;;;;;;1.00;0.63;;;8.70;99.90;;;;;;4999032;28;20105;-65
2023/04/02 07:02:34;;;;;;;1.15;0.60;;;8.70;99.90;;;;;;5000090;28;20031;-66
2023/04/02 07:05:07;;;;;;;0.93;0.75;;;8.70;99.90;;;;;;4999931;28;20041;-65
2023/04/02 07:07:33;;;;;;;5.65;1.05;;;8.50;99.90;;;;;;4999666;28;20030;-65
2023/04/02 07:09:59;;;;;;;0.80;0.60;;;8.50;99.90;;;;;;4998750;28;20026;-65
2023/04/02 07:12:25;;;;;;;0.50;0.50;;;8.60;99.90;;;;;;4999822;28;20022;-65
2023/04/02 07:14:51;;;;;;;1.25;0.88;;;8.50;99.90;;;;;;4998583;28;20113;-65
2023/04/02 07:17:18;;;;;;;0.73;0.70;;;8.50;99.90;;;;;;4999607;28;20034;-65
2023/04/02 07:19:47;;;;;;;0.73;0.55;;;8.50;99.90;;;;;;4999458;28;20029;-65
2023/04/02 07:22:14;;;;;;;0.80;0.70;;;8.30;99.90;;;;;;4999392;28;20050;-65
2023/04/02 07:24:39;;;;;;;0.90;0.70;;;8.30;99.90;;;;;;4999310;28;20053;-65
2023/04/02 07:27:05;;;;;;;1.10;0.70;;;8.30;99.90;;;;;;4998696;28;20030;-65
2023/04/02 07:29:30;;;;;;;1.48;0.40;;;8.20;99.90;;;;;;4999144;28;20029;-65
2023/04/02 07:31:56;;;;;;;0.63;0.40;;;8.10;99.90;;;;;;4999222;28;20045;-65
2023/04/02 07:34:21;;;;;;;0.57;0.45;;;8.20;99.90;;;;;;4999132;28;20073;-65
2023/04/02 07:36:48;;;;;;;1.02;0.80;;;8.30;99.90;;;;;;4998308;28;20022;-65
2023/04/02 07:39:13;;;;;;;1.15;0.80;;;8.20;99.90;;;;;;4998106;28;20086;-64
2023/04/02 07:41:54;;;;;;;1.17;0.77;;;8.00;99.90;;;;;;4999119;28;20026;-65
2023/04/02 07:44:19;;;;;;;0.93;0.50;;;8.10;99.90;;;;;;4999030;28;20046;-62
2023/04/02 07:46:45;;;;;;;0.90;0.70;;;8.00;99.90;;;;;;4999140;28;20038;-62
2023/04/02 07:49:10;;;;;;;0.60;0.60;;;7.90;99.90;;;;;;4997894;28;20026;-63
2023/04/02 07:51:36;;;;;;;0.90;0.60;;;7.80;99.90;;;;;;4998014;28;20061;-62
2023/04/02 07:54:02;;;;;;;2.85;0.75;;;7.90;99.90;;;;;;4998517;28;20058;-62
2023/04/02 07:56:27;;;;;;;0.82;0.63;;;7.90;99.90;;;;;;4998951;28;20022;-63
2023/04/02 07:58:53;;;;;;;1.65;0.80;;;7.90;99.90;;;;;;4997807;28;20018;-62
2023/04/02 08:01:25;;;;;;;0.75;0.60;;;7.60;99.90;;;;;;4997801;28;20018;-63
2023/04/02 08:03:52;;;;;;;1.02;0.50;;;7.60;99.90;;;;;;4997905;28;20027;-63
2023/04/02 08:06:18;;;;;;;0.95;0.50;;;7.60;99.90;;;;;;4997869;28;20035;-63
2023/04/02 08:08:44;;;;;;;0.88;0.70;;;7.50;99.90;;;;;;4997866;28;20033;-62
2023/04/02 08:11:10;;;;;;;1.05;0.73;;;7.60;99.90;;;;;;4997629;28;20018;-62
2023/04/02 08:13:36;;;;;;;1.02;0.60;;;7.60;99.90;;;;;;4997333;28;20112;-62
2023/04/02 08:16:02;;;;;;;0.90;0.70;;;7.80;99.90;;;;;;4997489;28;20066;-62
2023/04/02 08:18:29;;;;;;;0.95;0.80;;;8.00;99.90;;;;;;4997729;28;20034;-62
2023/04/02 08:20:55;;;;;;;0.73;0.63;;;8.20;99.90;;;;;;4998330;28;20023;-62
2023/04/02 08:23:22;;;;;;;1.10;0.90;;;8.20;99.90;;;;;;4998245;28;20022;-63
2023/04/02 08:25:48;;;;;;;1.55;0.95;;;8.30;99.90;;;;;;4997277;28;20030;-64
2023/04/02 08:28:14;;;;;;;0.98;0.80;;;8.40;99.90;;;;;;4998438;28;20022;-63
2023/04/02 08:30:40;;;;;;;0.63;0.63;;;8.20;99.90;;;;;;4997978;28;20049;-63
2023/04/02 08:33:06;;;;;;;1.67;1.10;;;8.20;99.90;;;;;;4997551;28;20028;-63
2023/04/02 08:35:32;;;;;;;1.33;0.75;;;8.30;99.90;;;;;;4997505;28;20113;-63
2023/04/02 08:37:57;;;;;;;0.73;0.70;;;8.30;99.90;;;;;;4997134;28;20117;-63
2023/04/02 08:40:23;;;;;;;1.55;1.00;;;8.30;99.90;;;;;;4998120;28;20030;-63
2023/04/02 08:43:19;;;;;;;2.03;1.08;;;8.30;99.90;;;;;;4997891;28;20029;-63
2023/04/02 08:45:55;;;;;;;1.33;0.98;;;8.20;99.90;;;;;;4997817;28;20034;-63
2023/04/02 08:48:22;;;;;;;1.38;1.00;;;8.10;99.90;;;;;;4998026;28;20061;-63
2023/04/02 08:50:48;;;;;;;2.42;0.80;;;8.00;99.90;;;;;;4997842;28;20065;-63
2023/04/02 08:53:23;;;;;;;1.52;0.95;;;8.00;99.90;;;;;;4997461;28;20129;-62
2023/04/02 08:56:18;;;;;;;1.45;1.05;;;8.00;99.90;;;;;;4996336;28;20033;-62
2023/04/02 08:58:49;;;;;;;1.70;0.93;;;7.70;99.90;;;;;;4997747;28;20018;-62
2023/04/02 09:01:43;;;;;;;1.48;0.70;;;7.80;99.90;;;;;;4996958;28;20058;-63
2023/04/02 09:04:15;;;;;;;2.03;0.90;;;7.70;99.90;;;;;;4997481;28;20113;-62
2023/04/02 09:06:42;;;;;;;1.02;0.82;;;7.50;99.90;;;;;;4996834;28;20037;-63
2023/04/02 09:09:10;;;;;;;10.70;1.30;;;7.70;99.90;;;;;;4997657;28;20054;-62
2023/04/02 09:11:53;;;;;;;1.80;0.80;;;7.70;99.90;;;;;;4998032;28;20030;-63
2023/04/02 09:14:25;;;;;;;1.00;0.80;;;7.60;99.90;;;;;;4997453;28;20023;-63
2023/04/02 09:16:52;;;;;;;;;;;7.60;99.90;;;;;;4997831;28;20019;-63
2023/04/02 09:19:23;;;;;;;2.45;1.13;;;7.50;99.90;;;;;;4997144;28;19910;-62
2023/04/02 09:21:56;;;;;;;2.00;1.42;;;7.30;99.90;;;;;;4997550;28;20069;-62
2023/04/02 09:24:21;;;;;;;1.60;1.00;;;7.60;99.90;;;;;;4997429;28;20027;-62
2023/04/02 09:26:47;;;;;;;1.38;1.08;;;7.40;99.90;;;;;;4996609;28;20042;-62
2023/04/02 09:29:12;;;;;;;1.75;1.38;;;7.10;99.90;;;;;;4996662;28;20029;-62
2023/04/02 09:31:47;;;;;;;1.50;1.15;;;7.20;99.90;;;;;;4996471;28;20117;-62
2023/04/02 09:34:28;;;;;;;2.63;1.83;;;7.30;99.90;;;;;;4997436;28;20033;-63
2023/04/02 09:36:54;;;;;;;5.15;1.85;;;7.50;99.90;;;;;;4997594;28;20031;-62
2023/04/02 09:39:25;;;;;;;3.03;1.73;;;7.50;99.90;;;;;;4997415;28;20014;-63
2023/04/02 09:41:51;;;;;;;1.92;1.67;;;7.40;99.90;;;;;;4997487;28;20023;-62
2023/04/02 09:44:29;;;;;;;3.13;1.73;;;7.30;99.90;;;;;;4996321;28;20034;-62
2023/04/02 09:46:58;;;;;;;2.45;1.83;;;7.30;99.90;;;;;;4997268;28;20081;-62
2023/04/02 09:49:29;;;;;;;4.07;1.48;;;7.40;99.90;;;;;;4996442;28;20047;-62
2023/04/02 09:52:20;;;;;;;2.95;1.35;;;7.30;99.90;;;;;;4997505;28;20109;-62
2023/04/02 09:55:17;;;;;;;1.27;1.10;;;7.20;99.90;;;;;;4996186;28;20026;-62
2023/04/02 09:57:44;;;;;;;2.70;1.70;;;7.30;99.90;;;;;;4997143;28;20102;-63
2023/04/02 10:00:30;;;;;;;2.50;1.52;;;7.50;99.90;;;;;;4997281;28;20081;-62
2023/04/02 10:03:25;;;;;;;2.17;1.27;;;7.60;99.90;;;;;;4996234;28;20045;-62
2023/04/02 10:06:23;;;;;;;1.63;1.20;;;7.50;99.90;;;;;;4992921;28;20034;-62
2023/04/02 10:08:50;;;;;;;1.80;1.20;;;7.60;99.90;;;;;;4963544;28;20069;-62
2023/04/02 10:11:28;;;;;;;1.33;1.20;;;7.40;99.90;;;;;;4979729;28;20035;-62
2023/04/02 10:14:09;;;;;;;1.40;0.93;;;7.50;99.90;;;;;;4963789;28;20109;-63
2023/04/02 10:16:45;;;;;;;1.50;1.00;;;7.30;99.90;;;;;;4963438;28;20027;-63
2023/04/02 10:19:26;;;;;;;2.05;1.50;;;7.40;99.90;;;;;;4963494;28;20270;-63
2023/04/02 10:21:53;;;;;;;1.98;1.15;;;7.30;99.90;;;;;;4979291;28;20022;-63
2023/04/02 10:24:19;;;;;;;1.60;1.42;;;7.50;99.90;;;;;;4963162;28;20035;-63
2023/04/02 10:27:16;;;;;;;3.08;1.38;;;7.50;99.90;;;;;;4963169;28;20030;-63
2023/04/02 10:30:03;;;;;;;1.35;0.90;;;7.70;99.90;;;;;;4979149;28;20118;-62
2023/04/02 10:32:37;;;;;;;3.83;1.60;;;7.70;99.90;;;;;;4963548;28;20145;-63
2023/04/02 10:35:17;;;;;;;1.35;1.17;;;7.90;99.90;;;;;;4963034;28;20027;-63
2023/04/02 10:37:45;;;;;;;3.05;1.23;;;7.70;99.90;;;;;;4963270;28;20061;-63
2023/04/02 10:40:28;;;;;;;5.13;1.67;;;7.90;99.90;;;;;;4963122;28;20019;-63
2023/04/02 10:43:15;;;;;;;3.22;1.48;;;7.90;99.90;;;;;;4979112;28;20030;-63
2023/04/02 10:45:53;;;;;;;2.63;1.50;;;8.00;99.90;;;;;;5001338;28;20122;-67
2023/04/02 10:48:38;;;;;;;2.75;1.40;;;8.00;99.90;;;;;;4999127;28;20022;-67
2023/04/02 10:51:26;;;;;;;1.63;1.40;;;7.90;99.90;;;;;;5000403;28;20089;-67
2023/04/02 10:54:16;;;;;;;2.15;1.30;;;7.70;99.90;;;;;;4999914;28;20062;-67
2023/04/02 10:56:44;;;;;;;3.60;1.40;;;7.60;99.90;;;;;;4998954;28;20023;-67
2023/04/02 10:59:18;;;;;;;2.28;1.58;;;7.60;99.90;;;;;;5000175;28;20022;-66
2023/04/02 11:01:46;;;;;;;2.28;1.50;;;7.70;99.90;;;;;;4998951;28;20026;-67
2023/04/02 11:04:35;;;;;;;1.70;1.17;;;7.90;99.90;;;;;;4998872;28;20022;-67
2023/04/02 11:07:06;;;;;;;2.17;1.20;;;7.60;99.90;;;;;;4996074;28;20109;-67
2023/04/02 11:09:39;;;;;;;4.22;1.20;;;7.40;99.90;;;;;;4998980;28;20125;-66
2023/04/02 11:12:07;;;;;;;1.77;1.30;;;7.20;99.90;;;;;;4998674;28;20034;-66
2023/04/02 11:14:33;;;;;;;1.35;1.20;;;7.10;99.90;;;;;;4998597;28;20026;-66
2023/04/02 11:17:01;;;;;;;3.83;1.38;;;7.20;99.90;;;;;;4999430;28;20026;-67
2023/04/02 11:19:32;;;;;;;3.72;1.23;;;7.30;99.90;;;;;;4998854;28;20015;-67
2023/04/02 11:22:12;;;;;;;1.45;1.00;;;7.30;99.90;;;;;;4999497;28;20034;-67
2023/04/02 11:24:49;;;;;;;2.00;1.27;;;7.40;99.90;;;;;;4999277;28;20026;-67
2023/04/02 11:27:32;;;;;;;1.67;1.10;;;7.40;99.90;;;;;;4998370;28;20022;-67
2023/04/02 11:30:23;;;;;;;1.40;1.05;;;7.30;99.90;;;;;;4999270;28;20026;-67
2023/04/02 11:32:49;;;;;;;2.15;1.30;;;7.40;99.90;;;;;;4998251;28;20038;-67
2023/04/02 11:35:35;;;;;;;0.93;0.90;;;7.40;99.90;;;;;;4998031;28;20027;-67
2023/04/02 11:38:10;;;;;;;2.60;1.25;;;7.30;99.90;;;;;;4999120;28;20109;-67
2023/04/02 11:40:46;;;;;;;4.43;1.58;;;7.50;99.90;;;;;;4998960;28;20030;-67
2023/04/02 11:43:30;;;;;;;3.80;1.00;;;7.60;99.90;;;;;;4998882;28;20037;-67
2023/04/02 11:46:01;;;;;;;1.33;0.80;;;7.60;99.90;;;;;;4998916;28;20038;-66
2023/04/02 11:48:36;;;;;;;1.70;1.00;;;7.50;99.90;;;;;;4998615;28;20087;-66
2023/04/02 11:51:22;;;;;;;2.55;0.82;;;7.50;99.90;;;;;;4998339;28;20057;-66
2023/04/02 11:53:50;;;;;;;1.20;0.90;;;7.20;99.90;;;;;;4997852;28;20105;-66
2023/04/02 11:56:24;;;;;;;1.77;1.10;;;7.30;99.90;;;;;;4998790;28;20097;-66
2023/04/02 11:59:29;;;;;;;1.85;1.30;;;7.30;99.90;;;;;;4997772;28;20034;-66
2023/04/02 12:02:33;;;;;;;1.38;1.05;;;7.50;99.90;;;;;;4997357;28;20030;-66
2023/04/02 12:05:25;;;;;;;2.17;1.08;;;7.40;99.90;;;;;;4998591;28;20049;-67
2023/04/02 12:08:07;;;;;;;2.65;1.25;;;7.40;99.90;;;;;;4993716;28;20038;-66
2023/04/02 12:10:52;;;;;;;3.25;1.65;;;7.30;99.90;;;;;;4997623;28;20049;-66
2023/04/02 12:13:37;;;;;;;1.85;1.40;;;7.20;99.90;;;;;;4998696;28;20034;-66
2023/04/02 12:16:03;;;;;;;3.38;1.50;;;7.30;99.90;;;;;;4997616;28;20041;-66
2023/04/02 12:18:29;;;;;;;2.60;1.60;;;7.40;99.90;;;;;;4997453;28;20027;-66
2023/04/02 12:20:56;;;;;;;3.75;1.45;;;7.20;99.90;;;;;;4998694;28;20026;-66
2023/04/02 12:23:30;;;;;;;4.25;1.73;;;7.30;99.90;;;;;;4997617;28;20061;-66
2023/04/02 12:26:00;;;;;;;2.80;1.83;;;7.20;99.90;;;;;;4997741;28;20076;-66
2023/04/02 12:28:27;;;;;;;4.82;1.73;;;7.30;99.90;;;;;;4997316;28;20026;-66
2023/04/02 12:31:08;;;;;;;3.55;2.10;;;7.40;99.90;;;;;;4997267;28;20026;-66
2023/04/02 12:33:36;;;;;;;3.65;1.92;;;7.50;99.90;;;;;;4998436;28;20026;-66
2023/04/02 12:36:15;;;;;;;2.30;1.77;;;7.60;99.90;;;;;;4997772;28;20023;-66
2023/04/02 12:38:53;;;;;;;3.35;1.70;;;7.30;99.90;;;;;;4997157;28;20023;-66
2023/04/02 12:41:35;;;;;;;2.50;1.60;;;7.40;99.90;;;;;;4998266;28;20019;-67
2023/04/02 12:44:02;;;;;;;;;;;7.50;99.90;;;;;;4997828;28;20034;-66
2023/04/02 12:46:30;;;;;;;5.88;1.90;;;7.60;99.90;;;;;;4997152;28;19910;-66
2023/04/02 12:49:05;;;;;;;2.78;1.60;;;7.50;99.90;;;;;;4997934;28;20085;-67
2023/04/02 12:51:32;;;;;;;3.22;1.70;;;7.40;99.90;;;;;;4997853;28;20161;-67
2023/04/02 12:53:58;;;;;;;5.95;1.70;;;7.40;99.90;;;;;;4996741;28;20035;-67
2023/04/02 12:56:24;;;;;;;3.80;1.80;;;7.30;99.90;;;;;;4997657;28;20045;-67
2023/04/02 12:59:00;;;;;;;2.38;1.90;;;7.40;99.90;;;;;;4997106;28;20022;-66
2023/04/02 13:01:27;;;;;;;2.38;1.55;;;7.40;99.90;;;;;;4997737;28;20021;-67
2023/04/02 13:04:05;;;;;;;3.05;1.77;;;7.50;99.90;;;;;;4996829;28;20061;-67
2023/04/02 13:06:31;;;;;;;3.65;2.13;;;7.50;99.90;;;;;;4997499;28;20022;-67
2023/04/02 13:08:58;;;;;;;6.03;2.35;;;7.50;99.90;;;;;;4997012;28;20026;-67
2023/04/02 13:11:39;;;;;;;3.42;1.80;;;7.50;99.90;;;;;;4996720;28;20026;-67
2023/04/02 13:14:14;;;;;;;2.65;1.70;;;7.40;99.90;;;;;;4996443;28;20026;-66
2023/04/02 13:16:39;;;;;;;5.15;1.45;;;7.60;99.90;;;;;;4996700;28;20117;-66
2023/04/02 13:19:19;;;;;;;4.97;1.45;;;7.40;99.90;;;;;;4997546;28;20050;-66
2023/04/02 13:21:45;;;;;;;4.30;2.00;;;7.20;99.90;;;;;;4996682;28;20029;-67
2023/04/02 13:24:26;;;;;;;7.57;1.90;;;7.20;99.90;;;;;;4996691;28;20027;-67
2023/04/02 13:27:02;;;;;;;5.88;1.88;;;7.20;99.90;;;;;;4996837;28;20027;-67
2023/04/02 13:29:33;;;;;;;4.43;2.03;;;7.20;99.90;;;;;;4996596;28;20030;-67
2023/04/02 13:32:04;;;;;;;3.30;1.60;;;7.00;99.90;;;;;;4996552;28;20030;-67
2023/04/02 13:34:30;;;;;;;8.95;2.10;;;6.90;99.90;;;;;;4997343;28;20026;-67